createdAt,value
2016-12-09T00:00:23.784Z,90.1
2016-12-09T00:01:32.476Z,89.62
2016-12-09T00:02:41.171Z,90.1
2016-12-09T00:03:49.855Z,89.15
2016-12-09T00:04:58.550Z,89.25
2016-12-09T00:06:07.244Z,89.43
2016-12-09T00:07:15.933Z,89.06
2016-12-09T00:08:24.623Z,89.06
2016-12-09T00:09:33.314Z,88.77
2016-12-09T00:10:42.001Z,88.87
2016-12-09T00:11:50.694Z,88.29
2016-12-09T00:12:59.388Z,87.92
2016-12-09T00:14:08.074Z,88.1
2016-12-09T00:15:16.757Z,88.01
2016-12-09T00:16:25.442Z,87.25
2016-12-09T00:17:34.140Z,87.68
2016-12-09T00:18:42.825Z,87.54
2016-12-09T00:19:51.511Z,87.82
2016-12-09T00:21:00.195Z,88.2
2016-12-09T00:22:08.886Z,88.1
2016-12-09T00:23:17.578Z,88.01
2016-12-09T00:24:26.269Z,88.2
2016-12-09T00:25:34.960Z,88.68
2016-12-09T00:26:43.652Z,88.58
2016-12-09T00:27:52.368Z,88.68
2016-12-09T00:29:01.057Z,88.77
2016-12-09T00:30:09.746Z,88.2
2016-12-09T00:31:18.430Z,88.06
2016-12-09T00:32:27.119Z,88.34
2016-12-09T00:33:35.809Z,88.53
2016-12-09T00:34:44.504Z,87.77
2016-12-09T00:35:53.195Z,88.01
2016-12-09T00:37:01.886Z,88.48
2016-12-09T00:38:10.578Z,88.1
2016-12-09T00:39:19.262Z,88.1
2016-12-09T00:40:27.953Z,88.96
2016-12-09T00:41:36.965Z,88.68
2016-12-09T00:42:45.656Z,88.77
2016-12-09T00:43:54.345Z,88.77
2016-12-09T00:45:03.032Z,88.1
2016-12-09T00:46:11.723Z,88.1
2016-12-09T00:47:20.413Z,87.92
2016-12-09T00:48:29.109Z,87.63
2016-12-09T00:49:37.800Z,87.63
2016-12-09T00:50:46.492Z,87.35
2016-12-09T00:51:55.181Z,87.63
2016-12-09T00:53:04.185Z,87.96
2016-12-09T00:54:12.874Z,86.91
2016-12-09T00:55:21.559Z,87.2
2016-12-09T00:56:30.250Z,86.44
2016-12-09T00:57:38.941Z,86.16
2016-12-09T00:58:47.629Z,85.97
2016-12-09T00:59:56.314Z,85.87
2016-12-09T01:01:05.005Z,85.68
2016-12-09T01:02:13.692Z,85.21
2016-12-09T01:03:22.387Z,84.92
2016-12-09T01:04:31.398Z,84.83
2016-12-09T01:05:40.091Z,85.11
2016-12-09T01:06:48.777Z,85.59
2016-12-09T01:07:57.472Z,85.02
2016-12-09T01:09:06.482Z,84.92
2016-12-09T01:10:15.174Z,85.87
2016-12-09T01:11:23.866Z,85.21
2016-12-09T01:12:32.564Z,85.21
2016-12-09T01:13:41.259Z,85.87
2016-12-09T01:14:49.950Z,85.59
2016-12-09T01:15:58.635Z,85.87
2016-12-09T01:17:07.326Z,85.49
2016-12-09T01:18:16.020Z,85.59
2016-12-09T01:19:24.710Z,85.68
2016-12-09T01:20:33.416Z,85.68
2016-12-09T01:21:42.105Z,85.02
2016-12-09T01:22:50.800Z,84.83
2016-12-09T01:23:59.490Z,84.83
2016-12-09T01:25:08.180Z,85.3
2016-12-09T01:26:16.897Z,84.83
2016-12-09T01:27:25.591Z,84.83
2016-12-09T01:28:34.282Z,84.74
2016-12-09T01:29:42.970Z,84.74
2016-12-09T01:30:51.664Z,85.02
2016-12-09T01:32:00.355Z,84.83
2016-12-09T01:33:09.360Z,85.11
2016-12-09T01:34:18.048Z,85.02
2016-12-09T01:35:26.741Z,85.11
2016-12-09T01:36:35.433Z,85.11
2016-12-09T01:37:44.118Z,84.92
2016-12-09T01:38:52.826Z,85.02
2016-12-09T01:40:01.522Z,85.02
2016-12-09T01:41:10.209Z,84.07
2016-12-09T01:42:18.902Z,84.83
2016-12-09T01:43:27.595Z,85.11
2016-12-09T01:44:36.284Z,85.11
2016-12-09T01:45:44.975Z,86.07
2016-12-09T01:46:53.665Z,85.78
2016-12-09T01:48:02.355Z,84.92
2016-12-09T01:49:11.045Z,85.21
2016-12-09T01:50:19.739Z,85.68
2016-12-09T01:51:28.432Z,85.55
2016-12-09T01:52:37.124Z,85.87
2016-12-09T01:53:45.836Z,85.55
2016-12-09T01:54:54.522Z,84.92
2016-12-09T01:56:03.224Z,85.3
2016-12-09T01:57:11.921Z,85.3
2016-12-09T01:58:20.608Z,84.83
2016-12-09T01:59:29.295Z,84.74
2016-12-09T02:00:37.983Z,84.07
2016-12-09T02:01:46.674Z,84.55
2016-12-09T02:02:55.359Z,84.36
2016-12-09T02:04:04.050Z,84.36
2016-12-09T02:05:12.746Z,84.64
2016-12-09T02:06:21.433Z,84.74
2016-12-09T02:07:30.119Z,84.83
2016-12-09T02:08:38.810Z,84.83
2016-12-09T02:09:47.505Z,84.88
2016-12-09T02:10:56.190Z,84.69
2016-12-09T02:12:04.886Z,84.78
2016-12-09T02:13:13.581Z,85.02
2016-12-09T02:14:22.285Z,84.26
2016-12-09T02:15:30.973Z,84.36
2016-12-09T02:16:39.667Z,85.07
2016-12-09T02:17:48.356Z,84.55
2016-12-09T02:18:57.046Z,85.17
2016-12-09T02:20:05.739Z,85.17
2016-12-09T02:21:14.431Z,85.93
2016-12-09T02:22:23.120Z,85.83
2016-12-09T02:23:31.812Z,85.83
2016-12-09T02:24:40.507Z,85.45
2016-12-09T02:25:49.224Z,84.98
2016-12-09T02:26:57.910Z,84.69
2016-12-09T02:28:06.600Z,84.69
2016-12-09T02:29:15.296Z,84.59
2016-12-09T02:30:23.988Z,84.98
2016-12-09T02:31:32.686Z,84.41
2016-12-09T02:32:41.370Z,83.59
2016-12-09T02:33:50.061Z,84.26
2016-12-09T02:34:58.754Z,84.45
2016-12-09T02:36:07.448Z,83.4
2016-12-09T02:37:16.141Z,83.4
2016-12-09T02:38:24.825Z,82.93
2016-12-09T02:39:33.518Z,82.65
2016-12-09T02:40:42.212Z,82.65
2016-12-09T02:41:50.901Z,83.03
2016-12-09T02:42:59.594Z,82.08
2016-12-09T02:44:08.282Z,82.08
2016-12-09T02:45:16.971Z,82.08
2016-12-09T02:46:25.655Z,82.27
2016-12-09T02:47:34.343Z,81.88
2016-12-09T02:48:43.034Z,81.51
2016-12-09T02:49:51.721Z,80.98
2016-12-09T02:51:00.410Z,80.65
2016-12-09T02:52:09.102Z,80.6
2016-12-09T02:53:17.793Z,80.51
2016-12-09T02:54:26.482Z,80.32
2016-12-09T02:55:35.170Z,80.6
2016-12-09T02:56:43.862Z,80.18
2016-12-09T02:57:52.551Z,80.08
2016-12-09T02:59:01.236Z,80.37
2016-12-09T03:00:09.928Z,80.03
2016-12-09T03:01:18.628Z,79.71
2016-12-09T03:02:27.314Z,78.99
2016-12-09T03:03:36.001Z,78.42
2016-12-09T03:04:44.685Z,78.51
2016-12-09T03:05:53.377Z,78.32
2016-12-09T03:07:02.065Z,78.51
2016-12-09T03:08:10.756Z,78.23
2016-12-09T03:09:19.452Z,77.66
2016-12-09T03:10:28.142Z,77.18
2016-12-09T03:11:36.838Z,77.75
2016-12-09T03:12:45.530Z,77.56
2016-12-09T03:13:54.225Z,77.56
2016-12-09T03:15:02.920Z,77.37
2016-12-09T03:16:11.605Z,76.61
2016-12-09T03:17:20.296Z,76.8
2016-12-09T03:18:28.988Z,76.42
2016-12-09T03:19:37.996Z,76.23
2016-12-09T03:20:46.683Z,75.95
2016-12-09T03:21:55.689Z,76.04
2016-12-09T03:23:04.388Z,75.85
2016-12-09T03:24:13.088Z,76.32
2016-12-09T03:25:21.778Z,75.47
2016-12-09T03:26:30.470Z,75.47
2016-12-09T03:27:39.163Z,75.19
2016-12-09T03:28:47.855Z,75
2016-12-09T03:29:56.545Z,74.71
2016-12-09T03:31:05.244Z,74.71
2016-12-09T03:32:13.936Z,74.81
2016-12-09T03:33:22.631Z,74.9
2016-12-09T03:34:31.348Z,75
2016-12-09T03:35:40.067Z,75.09
2016-12-09T03:36:48.755Z,75.38
2016-12-09T03:37:57.449Z,75.28
2016-12-09T03:39:06.139Z,75.09
2016-12-09T03:40:14.829Z,75.19
2016-12-09T03:41:23.521Z,75.28
2016-12-09T03:42:32.210Z,75.19
2016-12-09T03:43:40.900Z,75.67
2016-12-09T03:44:49.588Z,75.57
2016-12-09T03:45:58.310Z,75.38
2016-12-09T03:47:07.004Z,75.67
2016-12-09T03:48:15.693Z,75.38
2016-12-09T03:49:24.384Z,74.81
2016-12-09T03:50:33.125Z,74.62
2016-12-09T03:51:41.812Z,74.24
2016-12-09T03:52:50.499Z,73.48
2016-12-09T03:53:59.188Z,73.48
2016-12-09T03:55:07.877Z,73.38
2016-12-09T03:56:16.579Z,73.19
2016-12-09T03:57:25.286Z,73.96
2016-12-09T03:58:33.976Z,73.57
2016-12-09T03:59:42.668Z,73.38
2016-12-09T04:00:51.362Z,73.76
2016-12-09T04:02:00.048Z,73.1
2016-12-09T04:03:08.754Z,73.67
2016-12-09T04:04:17.446Z,73.19
2016-12-09T04:05:26.136Z,72.72
2016-12-09T04:06:34.827Z,72.63
2016-12-09T04:07:43.668Z,73.29
2016-12-09T04:08:52.391Z,73.48
2016-12-09T04:10:01.088Z,73.38
2016-12-09T04:11:09.778Z,73.67
2016-12-09T04:12:18.469Z,73.96
2016-12-09T04:13:27.157Z,73.57
2016-12-09T04:14:35.852Z,74.15
2016-12-09T04:15:44.545Z,73.96
2016-12-09T04:16:53.238Z,73.86
2016-12-09T04:18:01.929Z,73.38
2016-12-09T04:19:10.625Z,73.57
2016-12-09T04:20:19.312Z,73.19
2016-12-09T04:21:27.995Z,73.38
2016-12-09T04:22:36.685Z,73.1
2016-12-09T04:23:45.377Z,73.19
2016-12-09T04:24:54.062Z,72.63
2016-12-09T04:26:02.755Z,72.44
2016-12-09T04:27:11.447Z,72.53
2016-12-09T04:28:20.145Z,72.81
2016-12-09T04:29:28.838Z,73.1
2016-12-09T04:30:37.528Z,73
2016-12-09T04:31:46.222Z,72.63
2016-12-09T04:32:54.909Z,73.38
2016-12-09T04:34:03.604Z,73.48
2016-12-09T04:35:12.609Z,73.67
2016-12-09T04:36:21.305Z,74.24
2016-12-09T04:37:29.995Z,74.43
2016-12-09T04:38:38.690Z,74.15
2016-12-09T04:39:47.379Z,74.81
2016-12-09T04:40:56.073Z,74.87
2016-12-09T04:42:04.770Z,75.91
2016-12-09T04:43:13.471Z,75.81
2016-12-09T04:44:22.168Z,76.48
2016-12-09T04:45:30.856Z,77.33
2016-12-09T04:46:39.546Z,77.62
2016-12-09T04:47:48.236Z,77.52
2016-12-09T04:48:56.927Z,77.33
2016-12-09T04:50:05.617Z,77.52
2016-12-09T04:51:14.330Z,77.24
2016-12-09T04:52:23.016Z,77.33
2016-12-09T04:53:31.714Z,77.24
2016-12-09T04:54:40.402Z,77.52
2016-12-09T04:55:49.120Z,78.28
2016-12-09T04:56:57.813Z,77.81
2016-12-09T04:58:06.500Z,77.86
2016-12-09T04:59:15.190Z,78.62
2016-12-09T05:00:23.878Z,78.24
2016-12-09T05:01:32.575Z,78.34
2016-12-09T05:02:41.582Z,78.53
2016-12-09T05:03:50.278Z,78.34
2016-12-09T05:04:58.965Z,78.24
2016-12-09T05:06:07.654Z,78.53
2016-12-09T05:07:16.344Z,79.1
2016-12-09T05:08:25.029Z,78.91
2016-12-09T05:09:33.722Z,78.81
2016-12-09T05:10:42.415Z,78.91
2016-12-09T05:11:51.101Z,79.1
2016-12-09T05:12:59.793Z,79.57
2016-12-09T05:14:08.482Z,79.57
2016-12-09T05:15:17.167Z,79.38
2016-12-09T05:16:25.860Z,79.66
2016-12-09T05:17:34.548Z,79.76
2016-12-09T05:18:43.239Z,79.85
2016-12-09T05:19:51.966Z,79.57
2016-12-09T05:21:00.655Z,79.57
2016-12-09T05:22:09.344Z,79.57
2016-12-09T05:23:18.037Z,79.76
2016-12-09T05:24:26.750Z,79.66
2016-12-09T05:25:35.441Z,79.76
2016-12-09T05:26:44.133Z,79.38
2016-12-09T05:27:52.826Z,80.04
2016-12-09T05:29:01.515Z,79.76
2016-12-09T05:30:10.206Z,79.47
2016-12-09T05:31:18.897Z,79.63
2016-12-09T05:32:27.584Z,79.57
2016-12-09T05:33:36.271Z,79.95
2016-12-09T05:34:44.959Z,79.38
2016-12-09T05:35:53.651Z,80.24
2016-12-09T05:37:02.968Z,79.76
2016-12-09T05:38:11.662Z,79.85
2016-12-09T05:39:20.347Z,79.57
2016-12-09T05:40:29.033Z,78.91
2016-12-09T05:41:37.720Z,78.91
2016-12-09T05:42:46.409Z,78.91
2016-12-09T05:43:55.098Z,78.53
2016-12-09T05:45:03.798Z,79
2016-12-09T05:46:12.486Z,79
2016-12-09T05:47:21.175Z,78.81
2016-12-09T05:48:29.865Z,78.81
2016-12-09T05:49:38.557Z,78.91
2016-12-09T05:50:47.245Z,78.91
2016-12-09T05:51:55.959Z,79.28
2016-12-09T05:53:04.648Z,79.25
2016-12-09T05:54:13.333Z,79.38
2016-12-09T05:55:22.021Z,79.28
2016-12-09T05:56:30.708Z,79.15
2016-12-09T05:57:39.397Z,79.19
2016-12-09T05:58:48.087Z,79.34
2016-12-09T05:59:56.773Z,79.53
2016-12-09T06:01:05.459Z,79.25
2016-12-09T06:02:14.150Z,79.25
2016-12-09T06:03:22.836Z,79.19
2016-12-09T06:04:31.530Z,79.72
2016-12-09T06:05:40.221Z,79.82
2016-12-09T06:06:48.915Z,79.82
2016-12-09T06:07:57.599Z,79.63
2016-12-09T06:09:06.611Z,79.44
2016-12-09T06:10:15.300Z,79.15
2016-12-09T06:11:23.982Z,79.44
2016-12-09T06:12:32.671Z,79.34
2016-12-09T06:13:41.360Z,79.25
2016-12-09T06:14:50.050Z,79.63
2016-12-09T06:15:58.745Z,79.53
2016-12-09T06:17:07.439Z,80.1
2016-12-09T06:18:16.125Z,79.82
2016-12-09T06:19:24.911Z,80.29
2016-12-09T06:20:33.598Z,80.76
2016-12-09T06:21:42.293Z,80.29
2016-12-09T06:22:50.981Z,80.48
2016-12-09T06:23:59.672Z,80.38
2016-12-09T06:25:08.359Z,80.76
2016-12-09T06:26:17.048Z,81.33
2016-12-09T06:27:25.733Z,81.33
2016-12-09T06:28:34.451Z,82.47
2016-12-09T06:29:43.134Z,82.18
2016-12-09T06:30:51.820Z,82.85
2016-12-09T06:32:00.512Z,82.62
2016-12-09T06:33:09.215Z,82.52
2016-12-09T06:34:17.910Z,82.18
2016-12-09T06:35:26.612Z,81.99
2016-12-09T06:36:35.301Z,81.99
2016-12-09T06:37:43.987Z,81.62
2016-12-09T06:38:52.678Z,81.24
2016-12-09T06:40:01.369Z,80.95
2016-12-09T06:41:10.376Z,81.14
2016-12-09T06:42:19.065Z,81.24
2016-12-09T06:43:27.751Z,80.29
2016-12-09T06:44:36.751Z,80.48
2016-12-09T06:45:45.532Z,80.48
2016-12-09T06:46:54.324Z,79.82
2016-12-09T06:48:03.019Z,80.29
2016-12-09T06:49:11.714Z,79.91
2016-12-09T06:50:20.405Z,79.53
2016-12-09T06:51:29.417Z,79.53
2016-12-09T06:52:38.101Z,80.1
2016-12-09T06:53:46.793Z,80.19
2016-12-09T06:54:55.483Z,79.34
2016-12-09T06:56:04.250Z,79.53
2016-12-09T06:57:13.085Z,79.63
2016-12-09T06:58:21.807Z,79.34
2016-12-09T06:59:30.501Z,79.53
2016-12-09T07:00:39.186Z,78.87
2016-12-09T07:01:47.900Z,78.87
2016-12-09T07:02:56.584Z,78.87
2016-12-09T07:04:05.275Z,78.77
2016-12-09T07:05:13.963Z,78.77
2016-12-09T07:06:22.650Z,78.49
2016-12-09T07:07:31.658Z,78.49
2016-12-09T07:08:40.349Z,78.39
2016-12-09T07:09:49.036Z,78.2
2016-12-09T07:10:57.722Z,78.3
2016-12-09T07:12:06.410Z,77.73
2016-12-09T07:13:15.199Z,77.54
2016-12-09T07:14:23.884Z,77.35
2016-12-09T07:15:32.567Z,77.54
2016-12-09T07:16:41.256Z,77.25
2016-12-09T07:17:49.950Z,77.16
2016-12-09T07:18:58.634Z,77.16
2016-12-09T07:20:07.646Z,76.87
2016-12-09T07:21:16.330Z,76.68
2016-12-09T07:22:25.026Z,76.21
2016-12-09T07:23:33.719Z,76.21
2016-12-09T07:24:42.414Z,76.4
2016-12-09T07:25:51.104Z,76.68
2016-12-09T07:26:59.791Z,76.97
2016-12-09T07:28:08.482Z,76.68
2016-12-09T07:29:17.175Z,76.5
2016-12-09T07:30:25.862Z,77.06
2016-12-09T07:31:34.553Z,77.06
2016-12-09T07:32:43.247Z,76.97
2016-12-09T07:33:51.942Z,76.59
2016-12-09T07:35:00.627Z,76.5
2016-12-09T07:36:09.328Z,76.12
2016-12-09T07:37:18.341Z,75.93
2016-12-09T07:38:27.023Z,76.03
2016-12-09T07:39:35.720Z,75.36
2016-12-09T07:40:44.408Z,75.26
2016-12-09T07:41:53.094Z,75.55
2016-12-09T07:43:01.788Z,75.07
2016-12-09T07:44:10.481Z,74.98
2016-12-09T07:45:19.174Z,75.64
2016-12-09T07:46:27.861Z,74.98
2016-12-09T07:47:36.549Z,75.26
2016-12-09T07:48:45.246Z,74.98
2016-12-09T07:49:53.938Z,74.79
2016-12-09T07:51:02.625Z,73.94
2016-12-09T07:52:11.322Z,73.84
2016-12-09T07:53:20.005Z,73.75
2016-12-09T07:54:28.693Z,74.13
2016-12-09T07:55:37.383Z,74.79
2016-12-09T07:56:46.089Z,74.79
2016-12-09T07:57:54.778Z,74.69
2016-12-09T07:59:03.470Z,74.51
2016-12-09T08:00:12.153Z,74.51
2016-12-09T08:01:20.865Z,73.94
2016-12-09T08:02:29.551Z,74.22
2016-12-09T08:03:38.236Z,74.22
2016-12-09T08:04:46.927Z,73.94
2016-12-09T08:05:55.614Z,74.41
2016-12-09T08:07:04.308Z,74.03
2016-12-09T08:08:13.001Z,73.84
2016-12-09T08:09:21.689Z,74.13
2016-12-09T08:10:30.374Z,74.22
2016-12-09T08:11:39.068Z,74.13
2016-12-09T08:12:47.757Z,74.03
2016-12-09T08:13:56.452Z,74.41
2016-12-09T08:15:05.142Z,73.94
2016-12-09T08:16:13.833Z,73.46
2016-12-09T08:17:22.524Z,73.94
2016-12-09T08:18:31.207Z,74.13
2016-12-09T08:19:39.897Z,74.03
2016-12-09T08:20:48.582Z,73.94
2016-12-09T08:21:57.270Z,74.88
2016-12-09T08:23:05.956Z,74.88
2016-12-09T08:24:14.662Z,75.26
2016-12-09T08:25:23.353Z,75.07
2016-12-09T08:26:32.039Z,74.69
2016-12-09T08:27:40.734Z,74.79
2016-12-09T08:28:49.428Z,74.13
2016-12-09T08:29:58.117Z,74.13
2016-12-09T08:31:06.807Z,73.12
2016-12-09T08:32:15.491Z,73.12
2016-12-09T08:33:24.173Z,72.36
2016-12-09T08:34:32.863Z,72.55
2016-12-09T08:35:41.563Z,72.17
2016-12-09T08:36:50.251Z,72.74
2016-12-09T08:37:58.949Z,72.93
2016-12-09T08:39:07.637Z,72.08
2016-12-09T08:40:16.342Z,73.22
2016-12-09T08:41:25.028Z,73.22
2016-12-09T08:42:33.714Z,73.97
2016-12-09T08:43:42.403Z,73.88
2016-12-09T08:44:51.094Z,73.97
2016-12-09T08:45:59.788Z,74.83
2016-12-09T08:47:08.478Z,74.92
2016-12-09T08:48:17.163Z,75.02
2016-12-09T08:49:25.850Z,74.83
2016-12-09T08:50:34.543Z,75.21
2016-12-09T08:51:43.233Z,75.4
2016-12-09T08:52:51.920Z,75.49
2016-12-09T08:54:00.656Z,76.03
2016-12-09T08:55:09.349Z,75.84
2016-12-09T08:56:18.040Z,75.84
2016-12-09T08:57:26.727Z,75.74
2016-12-09T08:58:35.423Z,76.03
2016-12-09T08:59:44.219Z,76.21
2016-12-09T09:00:52.905Z,75.74
2016-12-09T09:02:01.592Z,75.45
2016-12-09T09:03:10.285Z,75.17
2016-12-09T09:04:18.978Z,75.45
2016-12-09T09:05:27.761Z,75.68
2016-12-09T09:06:36.451Z,75.45
2016-12-09T09:07:45.139Z,75.31
2016-12-09T09:08:53.830Z,75.59
2016-12-09T09:10:02.518Z,74.98
2016-12-09T09:11:11.266Z,75.31
2016-12-09T09:12:19.959Z,74.83
2016-12-09T09:13:28.648Z,74.64
2016-12-09T09:14:37.333Z,74.64
2016-12-09T09:15:46.028Z,74.83
2016-12-09T09:16:54.763Z,74.83
2016-12-09T09:18:03.451Z,74.64
2016-12-09T09:19:12.145Z,74.54
2016-12-09T09:20:20.832Z,74.73
2016-12-09T09:21:29.523Z,74.73
2016-12-09T09:22:38.531Z,74.92
2016-12-09T09:23:47.222Z,74.92
2016-12-09T09:24:55.913Z,75.4
2016-12-09T09:26:04.602Z,74.83
2016-12-09T09:27:13.294Z,73.97
2016-12-09T09:28:21.984Z,74.16
2016-12-09T09:29:30.670Z,74.07
2016-12-09T09:30:39.362Z,74.26
2016-12-09T09:31:48.052Z,73.31
2016-12-09T09:32:56.741Z,68
2016-12-09T09:34:05.745Z,64.75
2016-12-09T09:35:14.432Z,58.22
2016-12-09T09:36:23.434Z,55.39
2016-12-09T09:37:32.118Z,53.28
2016-12-09T09:38:40.810Z,53.38
2016-12-09T09:39:49.501Z,55.92
2016-12-09T09:40:58.192Z,58.4
2016-12-09T09:42:06.882Z,59.05
2016-12-09T09:43:15.565Z,59.99
2016-12-09T09:44:24.273Z,60.94
2016-12-09T09:45:33.273Z,62.34
2016-12-09T09:46:41.999Z,63.01
2016-12-09T09:47:50.683Z,63.64
2016-12-09T09:48:59.374Z,64.87
2016-12-09T09:50:08.060Z,65.25
2016-12-09T09:51:16.747Z,66.36
2016-12-09T09:52:25.439Z,67.59
2016-12-09T09:53:34.127Z,67.21
2016-12-09T09:54:42.815Z,67.79
2016-12-09T09:55:51.509Z,68.44
2016-12-09T09:57:00.199Z,69.36
2016-12-09T09:58:08.892Z,69.36
2016-12-09T09:59:17.586Z,69.36
2016-12-09T10:00:26.283Z,69.17
2016-12-09T10:01:34.968Z,69.65
2016-12-09T10:02:43.686Z,70.31
2016-12-09T10:03:52.393Z,69.17
2016-12-09T10:05:01.084Z,70.5
2016-12-09T10:06:09.775Z,70.4
2016-12-09T10:07:18.482Z,70.5
2016-12-09T10:08:27.176Z,70.78
2016-12-09T10:09:35.918Z,71.26
2016-12-09T10:10:44.608Z,71.26
2016-12-09T10:11:53.307Z,71.26
2016-12-09T10:13:01.995Z,70.59
2016-12-09T10:14:11.000Z,70.88
2016-12-09T10:15:19.697Z,70.5
2016-12-09T10:16:28.383Z,70.78
2016-12-09T10:17:37.081Z,70.31
2016-12-09T10:18:45.772Z,70.31
2016-12-09T10:19:54.457Z,70.4
2016-12-09T10:21:03.464Z,70.5
2016-12-09T10:22:12.463Z,70.98
2016-12-09T10:23:21.157Z,70.88
2016-12-09T10:24:29.848Z,70.78
2016-12-09T10:25:38.539Z,70.69
2016-12-09T10:26:47.230Z,71.17
2016-12-09T10:27:55.935Z,70.5
2016-12-09T10:29:04.626Z,70.88
2016-12-09T10:30:13.313Z,70.82
2016-12-09T10:31:22.007Z,70.15
2016-12-09T10:32:30.697Z,69.49
2016-12-09T10:33:39.388Z,68.73
2016-12-09T10:34:48.081Z,67.12
2016-12-09T10:35:56.767Z,66.49
2016-12-09T10:37:05.455Z,65.73
2016-12-09T10:38:14.153Z,65.25
2016-12-09T10:39:22.842Z,64.81
2016-12-09T10:40:31.857Z,63.67
2016-12-09T10:41:40.546Z,63.57
2016-12-09T10:42:49.239Z,63.39
2016-12-09T10:43:57.932Z,63.86
2016-12-09T10:45:06.635Z,64.05
2016-12-09T10:46:15.329Z,64.9
2016-12-09T10:47:24.033Z,65
2016-12-09T10:48:32.721Z,65.28
2016-12-09T10:49:41.413Z,65.57
2016-12-09T10:50:50.103Z,65.28
2016-12-09T10:51:58.804Z,65.44
2016-12-09T10:53:07.493Z,65.09
2016-12-09T10:54:16.192Z,65.47
2016-12-09T10:55:24.882Z,65.16
2016-12-09T10:56:33.576Z,65.92
2016-12-09T10:57:42.264Z,66.11
2016-12-09T10:58:50.954Z,66.01
2016-12-09T10:59:59.646Z,65.92
2016-12-09T11:01:08.341Z,66.2
2016-12-09T11:02:17.028Z,66.2
2016-12-09T11:03:25.717Z,66.11
2016-12-09T11:04:34.418Z,66.2
2016-12-09T11:05:43.108Z,66.2
2016-12-09T11:06:52.116Z,66.11
2016-12-09T11:08:00.811Z,66.11
2016-12-09T11:09:09.500Z,65.92
2016-12-09T11:10:18.195Z,66.11
2016-12-09T11:11:26.884Z,65
2016-12-09T11:12:35.571Z,65
2016-12-09T11:13:44.288Z,64.34
2016-12-09T11:14:52.990Z,64.81
2016-12-09T11:16:01.691Z,63.86
2016-12-09T11:17:10.697Z,63.48
2016-12-09T11:18:19.383Z,63.1
2016-12-09T11:19:28.073Z,62.65
2016-12-09T11:20:36.767Z,62.85
2016-12-09T11:21:45.482Z,62.56
2016-12-09T11:22:54.485Z,61.8
2016-12-09T11:24:03.183Z,61.8
2016-12-09T11:25:11.880Z,61.61
2016-12-09T11:26:20.573Z,61.42
2016-12-09T11:27:29.575Z,61.16
2016-12-09T11:28:38.273Z,61.52
2016-12-09T11:29:46.966Z,61.42
2016-12-09T11:30:55.658Z,61.32
2016-12-09T11:32:04.356Z,61.61
2016-12-09T11:33:13.051Z,61.23
2016-12-09T11:34:21.745Z,61.61
2016-12-09T11:35:30.462Z,61.61
2016-12-09T11:36:39.155Z,61.9
2016-12-09T11:37:47.847Z,61.71
2016-12-09T11:38:56.876Z,61.8
2016-12-09T11:40:05.568Z,62.56
2016-12-09T11:41:14.260Z,62.27
2016-12-09T11:42:22.954Z,61.99
2016-12-09T11:43:31.643Z,62.65
2016-12-09T11:44:40.340Z,62.85
2016-12-09T11:45:49.034Z,63.42
2016-12-09T11:46:57.727Z,63.67
2016-12-09T11:48:06.420Z,63.1
2016-12-09T11:49:15.111Z,68.8
2016-12-09T11:50:23.803Z,70.19
2016-12-09T11:51:32.496Z,70.82
2016-12-09T11:52:41.190Z,71.01
2016-12-09T11:53:49.890Z,70.54
2016-12-09T11:54:58.589Z,70.54
2016-12-09T11:56:07.291Z,70.63
2016-12-09T11:57:15.983Z,69.96
2016-12-09T11:58:24.674Z,69.4
2016-12-09T11:59:33.361Z,69.49
2016-12-09T12:00:42.060Z,68.54
2016-12-09T12:01:50.749Z,68.83
2016-12-09T12:02:59.441Z,68.26
2016-12-09T12:04:08.139Z,67.59
2016-12-09T12:05:16.836Z,67.44
2016-12-09T12:06:25.528Z,66.87
2016-12-09T12:07:34.217Z,67.06
2016-12-09T12:08:42.911Z,66.77
2016-12-09T12:09:51.604Z,66.3
2016-12-09T12:11:00.297Z,66.01
2016-12-09T12:12:08.995Z,65.54
2016-12-09T12:13:17.702Z,65.54
2016-12-09T12:14:26.396Z,65.73
2016-12-09T12:15:35.091Z,65.25
2016-12-09T12:16:43.783Z,65.86
2016-12-09T12:17:52.476Z,65.57
2016-12-09T12:19:01.163Z,65.35
2016-12-09T12:20:09.857Z,65.54
2016-12-09T12:21:18.547Z,65.25
2016-12-09T12:22:27.245Z,65.35
2016-12-09T12:23:35.932Z,65.44
2016-12-09T12:24:44.628Z,65.73
2016-12-09T12:25:53.325Z,65.92
2016-12-09T12:27:02.052Z,65.82
2016-12-09T12:28:10.747Z,66.01
2016-12-09T12:29:19.440Z,65.92
2016-12-09T12:30:28.131Z,65.73
2016-12-09T12:31:36.820Z,66.58
2016-12-09T12:32:45.514Z,66.39
2016-12-09T12:33:54.243Z,66.2
2016-12-09T12:35:02.934Z,66.87
2016-12-09T12:36:11.631Z,66.96
2016-12-09T12:37:20.320Z,66.67
2016-12-09T12:38:29.325Z,66.96
2016-12-09T12:39:38.017Z,67.06
2016-12-09T12:40:46.713Z,67.82
2016-12-09T12:41:55.401Z,67.06
2016-12-09T12:43:04.089Z,67.15
2016-12-09T12:44:12.786Z,67.53
2016-12-09T12:45:21.477Z,67.25
2016-12-09T12:46:30.174Z,67.53
2016-12-09T12:47:38.894Z,66.58
2016-12-09T12:48:47.589Z,66.96
2016-12-09T12:49:56.279Z,66.67
2016-12-09T12:51:05.004Z,66.96
2016-12-09T12:52:13.691Z,66.49
2016-12-09T12:53:22.379Z,66.3
2016-12-09T12:54:31.072Z,66.11
2016-12-09T12:55:39.764Z,65.82
2016-12-09T12:56:48.455Z,65.47
2016-12-09T12:57:57.149Z,66.14
2016-12-09T12:59:05.845Z,65.73
2016-12-09T13:00:14.538Z,65.95
2016-12-09T13:01:23.231Z,65.92
2016-12-09T13:02:31.959Z,66.01
2016-12-09T13:03:40.649Z,65.95
2016-12-09T13:04:49.373Z,66.14
2016-12-09T13:05:58.066Z,65.95
2016-12-09T13:07:06.756Z,66.05
2016-12-09T13:08:15.762Z,66.24
2016-12-09T13:09:24.447Z,66.52
2016-12-09T13:10:33.140Z,66.58
2016-12-09T13:11:41.832Z,66.67
2016-12-09T13:12:50.527Z,67.44
2016-12-09T13:13:59.222Z,67.34
2016-12-09T13:15:07.914Z,68.29
2016-12-09T13:16:16.608Z,68.1
2016-12-09T13:17:25.297Z,68.01
2016-12-09T13:18:33.992Z,68.19
2016-12-09T13:19:42.712Z,67.91
2016-12-09T13:20:51.410Z,68.1
2016-12-09T13:22:00.099Z,68.58
2016-12-09T13:23:08.790Z,68.29
2016-12-09T13:24:17.484Z,68.01
2016-12-09T13:25:26.176Z,67.91
2016-12-09T13:26:34.867Z,68.19
2016-12-09T13:27:43.560Z,67.91
2016-12-09T13:28:52.255Z,68.19
2016-12-09T13:30:00.958Z,68.01
2016-12-09T13:31:09.657Z,68.58
2016-12-09T13:32:18.350Z,68.67
2016-12-09T13:33:27.072Z,69.34
2016-12-09T13:34:35.808Z,69.43
2016-12-09T13:35:44.529Z,68.77
2016-12-09T13:36:53.217Z,69.49
2016-12-09T13:38:01.911Z,69.91
2016-12-09T13:39:10.602Z,70.25
2016-12-09T13:40:19.292Z,70.15
2016-12-09T13:41:27.994Z,70.25
2016-12-09T13:42:36.691Z,69.96
2016-12-09T13:43:45.382Z,69.4
2016-12-09T13:44:54.074Z,70.15
2016-12-09T13:46:02.767Z,70.06
2016-12-09T13:47:11.478Z,70.35
2016-12-09T13:48:20.176Z,70.06
2016-12-09T13:49:28.872Z,70.25
2016-12-09T13:50:37.723Z,70.54
2016-12-09T13:51:46.421Z,70.54
2016-12-09T13:52:55.120Z,71.11
2016-12-09T13:54:03.816Z,70.82
2016-12-09T13:55:12.515Z,70.92
2016-12-09T13:56:21.532Z,70.82
2016-12-09T13:57:30.225Z,71.3
2016-12-09T13:58:38.946Z,71.3
2016-12-09T13:59:47.640Z,72.06
2016-12-09T14:00:56.335Z,72.06
2016-12-09T14:02:05.033Z,72.06
2016-12-09T14:03:13.729Z,72.15
2016-12-09T14:04:22.420Z,72.44
2016-12-09T14:05:31.117Z,72.15
2016-12-09T14:06:39.807Z,72.72
2016-12-09T14:07:48.497Z,72.25
2016-12-09T14:08:57.187Z,71.86
2016-12-09T14:10:05.878Z,72.06
2016-12-09T14:11:14.573Z,72.44
2016-12-09T14:12:23.269Z,72.06
2016-12-09T14:13:31.960Z,72.44
2016-12-09T14:14:40.654Z,72.06
2016-12-09T14:15:49.350Z,71.96
2016-12-09T14:16:58.043Z,72.15
2016-12-09T14:18:06.738Z,71.86
2016-12-09T14:19:15.432Z,72.4
2016-12-09T14:20:24.125Z,72.4
2016-12-09T14:21:32.823Z,73.63
2016-12-09T14:22:41.520Z,73.44
2016-12-09T14:23:50.211Z,73.92
2016-12-09T14:24:58.908Z,74.3
2016-12-09T14:26:07.602Z,74.39
2016-12-09T14:27:16.299Z,74.35
2016-12-09T14:28:24.994Z,74.16
2016-12-09T14:29:33.686Z,75.4
2016-12-09T14:30:42.387Z,75.4
2016-12-09T14:31:51.080Z,75.87
2016-12-09T14:32:59.780Z,76.44
2016-12-09T14:34:08.470Z,76.82
2016-12-09T14:35:17.158Z,76.54
2016-12-09T14:36:25.853Z,76.4
2016-12-09T14:37:34.544Z,76.97
2016-12-09T14:38:43.242Z,77.2
2016-12-09T14:39:51.990Z,76.34
2016-12-09T14:41:00.683Z,76.44
2016-12-09T14:42:09.379Z,76.15
2016-12-09T14:43:18.070Z,75.87
2016-12-09T14:44:26.768Z,75.78
2016-12-09T14:45:35.456Z,75.96
2016-12-09T14:46:44.156Z,75.53
2016-12-09T14:47:53.165Z,74.68